Aviation Digital Data Service (ADDS)

Output produced by METARs form (2206 UTC 23 April 2014)
found at http://aviationweather.gov/adds/metars/
 
KPVD 232012Z 2320/2418 32016G25KT P6SM OVC040 
     FM240700 31016G32KT P6SM SCT250